createdAt,value
2019-05-03T00:02:41.703Z,70.60
2019-05-03T00:07:35.288Z,71.40
2019-05-03T00:12:29.736Z,71.80
2019-05-03T00:17:24.282Z,72.00
2019-05-03T00:22:32.300Z,72.90
2019-05-03T00:27:26.348Z,74.30
2019-05-03T00:32:21.530Z,75.60
2019-05-03T00:37:23.668Z,76.10
2019-05-03T00:42:17.220Z,76.80
2019-05-03T00:47:12.574Z,79.30
2019-05-03T00:52:06.408Z,77.90
2019-05-03T00:57:03.826Z,75.30
2019-05-03T01:02:03.183Z,73.80
2019-05-03T01:06:59.025Z,73.70
2019-05-03T01:12:02.296Z,75.40
2019-05-03T01:17:02.615Z,75.90
2019-05-03T01:21:59.291Z,77.80
2019-05-03T01:26:53.700Z,76.50
2019-05-03T01:31:48.373Z,74.90
2019-05-03T01:36:51.891Z,75.00
2019-05-03T01:41:45.576Z,75.00
2019-05-03T01:46:42.083Z,76.10
2019-05-03T01:51:47.904Z,75.50
2019-05-03T01:56:56.837Z,75.80
2019-05-03T02:01:43.136Z,76.50
2019-05-03T02:06:37.624Z,76.40
2019-05-03T02:11:32.617Z,77.30
2019-05-03T02:16:26.571Z,77.50
2019-05-03T02:21:23.256Z,77.10
2019-05-03T02:26:16.736Z,78.90
2019-05-03T02:31:13.746Z,79.30
2019-05-03T02:36:13.303Z,79.50
2019-05-03T02:41:06.895Z,79.60
2019-05-03T02:46:05.888Z,79.60
2019-05-03T02:51:06.547Z,80.00
2019-05-03T02:56:13.707Z,78.10
2019-05-03T03:00:58.859Z,77.60
2019-05-03T03:06:02.493Z,76.40
2019-05-03T03:11:06.052Z,78.40
2019-05-03T03:16:01.893Z,78.20
2019-05-03T03:20:58.508Z,80.10
2019-05-03T03:25:55.853Z,78.90
2019-05-03T03:31:01.956Z,79.40
2019-05-03T03:36:07.268Z,80.20
2019-05-03T03:40:56.495Z,80.60
2019-05-03T03:45:52.098Z,80.70
2019-05-03T03:50:49.864Z,81.30
2019-05-03T03:55:47.413Z,82.10
2019-05-03T04:00:41.229Z,83.00
2019-05-03T04:05:35.885Z,83.70
2019-05-03T04:10:31.110Z,83.60
2019-05-03T04:15:28.304Z,83.20
2019-05-03T04:20:30.269Z,83.00
2019-05-03T04:25:26.210Z,83.20
2019-05-03T04:30:22.493Z,84.20
2019-05-03T04:35:21.826Z,83.00
2019-05-03T04:40:15.880Z,83.40
2019-05-03T04:45:09.932Z,83.20
2019-05-03T04:50:05.652Z,84.10
2019-05-03T04:55:01.571Z,84.00
2019-05-03T05:00:00.949Z,83.80
2019-05-03T05:04:55.565Z,83.30
2019-05-03T05:09:49.358Z,83.20
2019-05-03T05:14:45.742Z,83.80
2019-05-03T05:19:46.689Z,81.90
2019-05-03T05:24:40.270Z,80.50
2019-05-03T05:29:35.491Z,78.40
2019-05-03T05:34:30.108Z,78.20
2019-05-03T05:39:24.492Z,78.10
2019-05-03T05:44:18.135Z,78.10
2019-05-03T05:49:14.665Z,79.30
2019-05-03T05:54:10.272Z,77.00
2019-05-03T05:59:05.521Z,74.50
2019-05-03T06:03:59.088Z,73.20
2019-05-03T06:08:58.189Z,74.20
2019-05-03T06:13:54.617Z,75.10
2019-05-03T06:18:54.454Z,74.20
2019-05-03T06:23:49.783Z,74.00
2019-05-03T06:28:44.965Z,72.40
2019-05-03T06:33:39.756Z,71.00
2019-05-03T06:38:34.407Z,69.60
2019-05-03T06:43:28.067Z,71.80
2019-05-03T06:48:22.296Z,71.20
2019-05-03T06:53:17.572Z,72.40
2019-05-03T06:58:11.116Z,70.40
2019-05-03T07:03:18.610Z,70.20
2019-05-03T07:08:31.546Z,70.20
2019-05-03T07:13:25.542Z,69.70
2019-05-03T07:18:19.128Z,73.20
2019-05-03T07:23:12.672Z,70.30
2019-05-03T07:28:06.205Z,69.60
2019-05-03T07:33:01.614Z,69.30
2019-05-03T07:37:55.445Z,73.60
2019-05-03T07:42:49.170Z,71.40
2019-05-03T07:47:42.731Z,70.30
2019-05-03T07:52:36.305Z,67.80
2019-05-03T07:57:35.705Z,65.20
2019-05-03T08:02:29.457Z,59.00
2019-05-03T08:07:25.125Z,58.00
2019-05-03T08:12:19.113Z,56.70
2019-05-03T08:17:13.021Z,53.50
2019-05-03T08:22:06.757Z,55.90
2019-05-03T08:27:00.385Z,58.80
2019-05-03T08:32:01.647Z,55.30
2019-05-03T08:36:56.886Z,55.40
2019-05-03T08:41:57.843Z,58.40
2019-05-03T08:46:51.482Z,64.30
2019-05-03T08:51:45.025Z,69.60
2019-05-03T08:56:38.581Z,69.50
2019-05-03T09:01:32.229Z,71.30
2019-05-03T09:06:25.778Z,66.80
2019-05-03T09:11:30.801Z,64.20
2019-05-03T09:16:15.012Z,56.10
2019-05-03T09:21:08.841Z,54.90
2019-05-03T09:26:04.525Z,49.40
2019-05-03T09:30:57.675Z,47.20
2019-05-03T09:35:51.618Z,45.80
2019-05-03T09:40:45.522Z,47.70
2019-05-03T09:45:39.232Z,47.10
2019-05-03T09:50:32.815Z,50.10
2019-05-03T09:55:28.009Z,55.00
2019-05-03T10:00:21.643Z,58.70
2019-05-03T10:05:15.578Z,54.50
2019-05-03T10:10:09.663Z,48.00
2019-05-03T10:15:06.330Z,44.70
2019-05-03T10:19:59.407Z,43.00
2019-05-03T10:24:54.923Z,48.40
2019-05-03T10:29:49.137Z,46.40
2019-05-03T10:34:59.148Z,49.20
2019-05-03T10:39:52.717Z,51.60
2019-05-03T10:44:46.560Z,50.00
2019-05-03T10:49:40.141Z,47.80
2019-05-03T10:54:35.607Z,45.40
2019-05-03T10:59:28.936Z,42.20
2019-05-03T11:04:25.997Z,42.60
2019-05-03T11:09:19.566Z,42.50
2019-05-03T11:14:20.932Z,43.80
2019-05-03T11:19:15.086Z,43.80
2019-05-03T11:24:08.712Z,45.90
2019-05-03T11:29:02.273Z,45.00
2019-05-03T11:33:57.891Z,41.10
2019-05-03T11:38:51.582Z,42.10
2019-05-03T11:43:46.582Z,42.00
2019-05-03T11:48:40.168Z,43.10
2019-05-03T11:53:35.761Z,37.60
2019-05-03T11:58:29.413Z,36.30
2019-05-03T12:03:27.013Z,39.10
2019-05-03T12:08:20.656Z,41.10
2019-05-03T12:13:15.981Z,43.80
2019-05-03T12:18:16.699Z,50.00
2019-05-03T12:23:12.433Z,49.40
2019-05-03T12:28:12.477Z,52.20
2019-05-03T12:33:06.485Z,48.40
2019-05-03T12:38:00.059Z,49.20
2019-05-03T12:42:55.314Z,51.40
2019-05-03T12:47:48.801Z,50.10
2019-05-03T12:57:37.551Z,52.80
2019-05-03T13:02:47.751Z,53.80
2019-05-03T13:07:49.111Z,50.50
2019-05-03T13:12:52.434Z,49.20
2019-05-03T13:17:40.878Z,50.10
2019-05-03T13:22:35.495Z,51.10
2019-05-03T13:27:29.121Z,51.70
2019-05-03T13:32:22.709Z,49.90
2019-05-03T13:37:16.273Z,48.50
2019-05-03T13:42:14.485Z,46.70
2019-05-03T13:47:08.089Z,48.40
2019-05-03T15:20:18.920Z,81.30
2019-05-03T16:04:25.032Z,81.70
2019-05-03T16:09:19.113Z,81.80
2019-05-03T16:34:04.896Z,76.40
2019-05-03T16:53:41.407Z,77.10
2019-05-03T17:18:31.116Z,97.20
2019-05-03T18:08:46.622Z,90.00
2019-05-03T18:13:40.494Z,86.30
2019-05-03T18:18:35.260Z,90.30
2019-05-03T18:23:28.847Z,90.20
2019-05-03T18:28:22.385Z,89.70
2019-05-03T18:33:15.874Z,89.30
2019-05-03T18:38:10.284Z,90.60
2019-05-03T18:47:59.410Z,90.40
2019-05-03T19:32:15.052Z,90.50
2019-05-03T19:37:09.652Z,88.80
2019-05-03T19:42:03.187Z,90.20
2019-05-03T19:46:56.807Z,90.40
2019-05-03T19:51:50.434Z,90.00
2019-05-03T19:56:44.600Z,89.10
2019-05-03T20:01:40.918Z,88.70
2019-05-03T20:06:54.367Z,87.10
2019-05-03T22:19:31.440Z,85.30
2019-05-03T22:24:29.659Z,82.90
2019-05-03T22:29:25.476Z,85.40
2019-05-03T22:34:18.864Z,84.90
2019-05-03T22:39:12.421Z,85.50
2019-05-03T22:44:06.069Z,87.70
2019-05-03T22:48:59.956Z,87.50
2019-05-03T22:53:55.282Z,87.10
2019-05-03T23:13:32.776Z,99.90
2019-05-03T23:33:25.971Z,97.70
2019-05-03T23:53:01.269Z,99.90
